createdAt,value
2018-04-09T00:00:54.063Z,23.40
2018-04-09T00:03:21.518Z,23.30
2018-04-09T00:05:49.022Z,23.30
2018-04-09T00:08:16.486Z,23.30
2018-04-09T00:10:43.954Z,23.30
2018-04-09T00:13:11.405Z,23.20
2018-04-09T00:15:38.865Z,23.20
2018-04-09T00:18:06.343Z,23.10
2018-04-09T00:20:34.567Z,23.00
2018-04-09T00:23:02.012Z,23.00
2018-04-09T00:25:29.474Z,23.00
2018-04-09T00:27:56.930Z,22.90
2018-04-09T00:30:25.155Z,22.90
2018-04-09T00:32:52.662Z,22.90
2018-04-09T00:35:20.134Z,22.90
2018-04-09T00:37:47.587Z,22.90
2018-04-09T00:40:15.087Z,22.80
2018-04-09T00:42:42.546Z,22.80
2018-04-09T00:45:10.778Z,22.70
2018-04-09T00:47:38.234Z,22.70
2018-04-09T00:50:05.705Z,22.70
2018-04-09T00:52:33.178Z,22.70
2018-04-09T00:55:00.637Z,22.60
2018-04-09T00:57:28.090Z,22.60
2018-04-09T00:59:55.554Z,22.60
2018-04-09T01:02:23.792Z,22.50
2018-04-09T01:04:51.266Z,22.50
2018-04-09T01:07:18.717Z,22.50
2018-04-09T01:09:46.202Z,22.50
2018-04-09T01:12:14.417Z,22.40
2018-04-09T01:14:41.877Z,22.40
2018-04-09T01:17:09.344Z,22.40
2018-04-09T01:19:36.818Z,22.30
2018-04-09T01:22:04.276Z,22.30
2018-04-09T01:24:31.773Z,22.30
2018-04-09T01:27:00.001Z,22.20
2018-04-09T01:29:27.462Z,22.20
2018-04-09T01:31:54.922Z,22.20
2018-04-09T01:34:22.377Z,22.20
2018-04-09T01:36:49.857Z,22.10
2018-04-09T01:39:17.309Z,22.00
2018-04-09T01:41:44.781Z,22.10
2018-04-09T01:44:12.220Z,22.00
2018-04-09T01:46:39.690Z,21.90
2018-04-09T01:49:07.141Z,21.90
2018-04-09T01:51:34.597Z,21.90
2018-04-09T01:54:02.056Z,21.80
2018-04-09T01:56:29.513Z,21.80
2018-04-09T01:58:56.983Z,21.70
2018-04-09T02:01:25.244Z,21.60
2018-04-09T02:03:52.701Z,21.60
2018-04-09T02:06:20.159Z,21.60
2018-04-09T02:08:47.621Z,21.60
2018-04-09T02:11:15.089Z,21.50
2018-04-09T02:13:42.546Z,21.50
2018-04-09T02:16:10.006Z,21.40
2018-04-09T02:18:37.453Z,21.40
2018-04-09T02:21:04.913Z,21.40
2018-04-09T02:23:32.370Z,21.40
2018-04-09T02:25:59.829Z,21.30
2018-04-09T02:28:27.276Z,21.30
2018-04-09T02:30:54.739Z,21.30
2018-04-09T02:33:22.981Z,21.30
2018-04-09T02:35:50.429Z,21.30
2018-04-09T02:38:17.881Z,21.20
2018-04-09T02:40:45.362Z,21.20
2018-04-09T02:43:12.828Z,21.10
2018-04-09T02:45:40.281Z,21.10
2018-04-09T02:48:07.725Z,21.10
2018-04-09T02:50:35.185Z,21.10
2018-04-09T02:53:02.686Z,21.10
2018-04-09T02:55:30.143Z,21.00
2018-04-09T02:57:57.595Z,21.00
2018-04-09T03:00:25.054Z,21.00
2018-04-09T03:02:52.520Z,21.00
2018-04-09T03:05:20.753Z,21.00
2018-04-09T03:07:48.209Z,20.90
2018-04-09T03:10:16.438Z,21.00
2018-04-09T03:12:44.657Z,21.00
2018-04-09T03:15:12.130Z,21.00
2018-04-09T03:17:39.573Z,21.00
2018-04-09T03:20:07.028Z,21.00
2018-04-09T03:22:34.482Z,21.00
2018-04-09T03:25:01.939Z,20.90
2018-04-09T03:27:29.397Z,20.80
2018-04-09T03:29:56.854Z,20.80
2018-04-09T03:32:24.320Z,20.90
2018-04-09T03:34:51.778Z,20.90
2018-04-09T03:37:19.223Z,20.70
2018-04-09T03:39:46.690Z,20.70
2018-04-09T03:42:14.141Z,20.70
2018-04-09T03:44:41.601Z,20.80
2018-04-09T03:47:09.061Z,20.80
2018-04-09T03:49:36.536Z,20.70
2018-04-09T03:52:04.022Z,20.70
2018-04-09T03:54:32.260Z,20.70
2018-04-09T03:56:59.741Z,20.70
2018-04-09T03:59:27.182Z,20.60
2018-04-09T04:01:54.653Z,20.60
2018-04-09T04:04:22.100Z,20.60
2018-04-09T04:06:49.565Z,20.60
2018-04-09T04:09:17.041Z,20.50
2018-04-09T04:11:45.270Z,20.50
2018-04-09T04:14:12.713Z,20.50
2018-04-09T04:16:51.904Z,20.60
2018-04-09T04:19:31.145Z,20.60
2018-04-09T04:21:59.386Z,20.40
2018-04-09T04:24:26.841Z,20.40
2018-04-09T04:26:54.549Z,20.40
2018-04-09T04:29:22.820Z,20.40
2018-04-09T04:31:50.295Z,20.40
2018-04-09T04:34:17.753Z,20.40
2018-04-09T04:36:45.213Z,20.40
2018-04-09T04:39:12.670Z,20.30
2018-04-09T04:41:40.941Z,20.30
2018-04-09T04:44:08.399Z,20.40
2018-04-09T04:46:35.860Z,20.30
2018-04-09T04:49:03.300Z,20.30
2018-04-09T04:51:31.525Z,20.20
2018-04-09T04:53:58.989Z,20.20
2018-04-09T04:56:26.453Z,20.30
2018-04-09T04:58:53.913Z,20.30
2018-04-09T05:01:21.369Z,20.20
2018-04-09T05:03:48.825Z,20.20
2018-04-09T05:06:16.295Z,20.20
2018-04-09T05:08:43.743Z,20.30
2018-04-09T05:11:11.206Z,20.20
2018-04-09T05:13:38.658Z,20.20
2018-04-09T05:16:06.155Z,20.30
2018-04-09T05:18:34.369Z,20.20
2018-04-09T05:21:01.858Z,20.20
2018-04-09T05:23:29.284Z,20.30
2018-04-09T05:25:56.753Z,20.40
2018-04-09T05:28:24.192Z,20.40
2018-04-09T05:30:52.489Z,20.40
2018-04-09T05:33:19.926Z,20.40
2018-04-09T05:35:47.392Z,20.40
2018-04-09T05:38:14.845Z,20.40
2018-04-09T05:40:42.325Z,20.40
2018-04-09T05:43:09.770Z,20.50
2018-04-09T05:45:37.241Z,20.50
2018-04-09T05:48:04.694Z,20.50
2018-04-09T05:50:32.147Z,20.50
2018-04-09T05:52:59.714Z,20.60
2018-04-09T05:55:27.194Z,20.50
2018-04-09T05:57:54.645Z,20.50
2018-04-09T06:00:22.880Z,20.70
2018-04-09T06:02:50.356Z,20.70
2018-04-09T06:05:17.808Z,20.60
2018-04-09T06:07:45.278Z,20.60
2018-04-09T06:10:12.718Z,20.50
2018-04-09T06:12:40.195Z,20.60
2018-04-09T06:15:07.647Z,20.60
2018-04-09T06:17:35.113Z,20.60
2018-04-09T06:20:02.577Z,20.50
2018-04-09T06:22:30.034Z,20.60
2018-04-09T06:24:57.493Z,20.60
2018-04-09T06:27:24.950Z,20.70
2018-04-09T06:29:52.410Z,20.80
2018-04-09T06:32:19.865Z,20.80
2018-04-09T06:34:47.309Z,20.80
2018-04-09T06:37:14.791Z,20.70
2018-04-09T06:39:43.013Z,20.90
2018-04-09T06:42:10.476Z,20.90
2018-04-09T06:44:37.931Z,20.90
2018-04-09T06:47:05.390Z,20.90
2018-04-09T06:49:32.849Z,21.00
2018-04-09T06:52:00.323Z,20.90
2018-04-09T06:54:27.777Z,21.00
2018-04-09T06:56:55.245Z,21.10
2018-04-09T06:59:22.697Z,21.10
2018-04-09T07:01:50.169Z,21.20
2018-04-09T07:04:17.620Z,21.30
2018-04-09T07:06:45.859Z,21.50
2018-04-09T07:09:13.309Z,21.50
2018-04-09T07:11:41.272Z,21.60
2018-04-09T07:14:08.724Z,21.50
2018-04-09T07:16:36.180Z,21.60
2018-04-09T07:19:03.645Z,21.70
2018-04-09T07:21:31.095Z,21.70
2018-04-09T07:23:58.546Z,21.70
2018-04-09T07:26:26.777Z,21.80
2018-04-09T07:28:54.260Z,21.80
2018-04-09T07:31:21.721Z,21.70
2018-04-09T07:33:49.977Z,21.60
2018-04-09T07:36:17.417Z,21.60
2018-04-09T07:38:44.905Z,21.60
2018-04-09T07:41:12.350Z,21.80
2018-04-09T07:43:39.817Z,22.00
2018-04-09T07:46:07.274Z,22.00
2018-04-09T07:48:34.734Z,22.10
2018-04-09T07:51:02.174Z,22.20
2018-04-09T07:53:29.643Z,22.20
2018-04-09T07:55:57.110Z,22.20
2018-04-09T07:58:24.562Z,22.30
2018-04-09T08:00:52.008Z,22.40
2018-04-09T08:03:19.468Z,22.40
2018-04-09T08:05:46.940Z,22.50
2018-04-09T08:08:14.397Z,22.70
2018-04-09T08:10:42.613Z,23.20
2018-04-09T08:13:10.103Z,23.20
2018-04-09T08:15:37.521Z,23.50
2018-04-09T08:18:05.009Z,23.70
2018-04-09T08:20:32.456Z,24.00
2018-04-09T08:22:59.913Z,24.20
2018-04-09T08:25:27.369Z,24.40
2018-04-09T08:27:54.829Z,24.60
2018-04-09T08:30:22.285Z,24.80
2018-04-09T08:32:49.750Z,25.00
2018-04-09T08:35:17.198Z,25.10
2018-04-09T08:37:44.652Z,25.20
2018-04-09T08:40:12.118Z,25.30
2018-04-09T08:42:39.595Z,25.40
2018-04-09T08:45:07.044Z,25.40
2018-04-09T08:47:34.503Z,25.50
2018-04-09T08:50:01.942Z,25.50
2018-04-09T08:52:29.395Z,25.60
2018-04-09T08:54:56.840Z,25.60
2018-04-09T08:57:24.320Z,25.70
2018-04-09T08:59:51.793Z,25.80
2018-04-09T09:02:19.280Z,25.80
2018-04-09T09:04:46.743Z,25.80
2018-04-09T09:07:14.961Z,26.10
2018-04-09T09:09:42.425Z,26.10
2018-04-09T09:12:10.644Z,26.30
2018-04-09T09:14:38.094Z,26.30
2018-04-09T09:17:05.557Z,26.30
2018-04-09T09:19:33.005Z,26.20
2018-04-09T09:22:00.471Z,26.20
2018-04-09T09:24:27.965Z,26.00
2018-04-09T09:26:56.270Z,26.00
2018-04-09T09:29:23.781Z,26.00
2018-04-09T09:31:51.184Z,25.90
2018-04-09T09:34:18.641Z,25.80
2018-04-09T09:36:46.094Z,25.80
2018-04-09T09:39:13.553Z,25.70
2018-04-09T09:41:40.986Z,25.80
2018-04-09T09:44:08.466Z,26.00
2018-04-09T09:46:35.929Z,26.00
2018-04-09T09:49:03.392Z,26.30
2018-04-09T09:51:30.853Z,26.50
2018-04-09T09:53:58.332Z,26.90
2018-04-09T09:56:25.786Z,27.50
2018-04-09T09:58:53.241Z,27.70
2018-04-09T10:01:20.697Z,28.00
2018-04-09T10:03:48.158Z,28.10
2018-04-09T10:06:15.612Z,28.30
2018-04-09T10:08:43.099Z,28.40
2018-04-09T10:11:11.322Z,28.60
2018-04-09T10:13:38.775Z,28.60
2018-04-09T10:16:06.224Z,28.70
2018-04-09T10:18:33.681Z,28.60
2018-04-09T10:21:01.136Z,28.70
2018-04-09T10:23:28.607Z,28.70
2018-04-09T10:25:56.067Z,28.70
2018-04-09T10:28:23.513Z,28.90
2018-04-09T10:30:50.969Z,29.10
2018-04-09T10:33:18.422Z,29.30
2018-04-09T10:35:45.888Z,29.40
2018-04-09T10:38:13.342Z,29.30
2018-04-09T10:40:40.793Z,29.30
2018-04-09T10:43:08.257Z,29.40
2018-04-09T10:45:35.698Z,29.40
2018-04-09T10:48:03.166Z,29.30
2018-04-09T10:50:30.596Z,29.30
2018-04-09T10:52:58.820Z,29.40
2018-04-09T10:55:26.285Z,29.50
2018-04-09T10:57:53.748Z,29.60
2018-04-09T11:00:21.228Z,29.80
2018-04-09T11:02:48.672Z,29.90
2018-04-09T11:05:16.128Z,29.90
2018-04-09T11:07:43.585Z,29.90
2018-04-09T11:10:11.038Z,30.40
2018-04-09T11:12:38.492Z,31.00
2018-04-09T11:15:05.965Z,32.00
2018-04-09T11:17:33.407Z,32.60
2018-04-09T11:20:01.627Z,32.50
2018-04-09T11:22:29.073Z,32.50
2018-04-09T11:24:57.300Z,34.70
2018-04-09T11:27:24.742Z,34.60
2018-04-09T11:29:52.197Z,35.90
2018-04-09T11:32:19.650Z,37.40
2018-04-09T11:34:47.116Z,37.50
2018-04-09T11:37:14.596Z,37.20
2018-04-09T11:39:42.059Z,37.70
2018-04-09T11:42:09.510Z,38.10
2018-04-09T11:44:36.972Z,37.70
2018-04-09T11:47:04.417Z,37.70
2018-04-09T11:49:31.874Z,37.20
2018-04-09T11:51:59.319Z,36.50
2018-04-09T11:54:26.788Z,35.80
2018-04-09T11:56:54.235Z,35.20
2018-04-09T11:59:21.704Z,34.80
2018-04-09T12:01:49.155Z,34.60
2018-04-09T12:04:16.619Z,35.20
2018-04-09T12:06:44.056Z,35.00
2018-04-09T12:09:11.516Z,34.50
2018-04-09T12:11:38.970Z,35.00
2018-04-09T12:14:06.432Z,36.10
2018-04-09T12:16:33.891Z,37.60
2018-04-09T12:19:01.347Z,38.20
2018-04-09T12:21:29.563Z,39.70
2018-04-09T12:23:57.035Z,39.70
2018-04-09T12:26:24.487Z,39.90
2018-04-09T12:28:51.953Z,40.30
2018-04-09T12:31:20.180Z,39.90
2018-04-09T12:33:47.639Z,39.90
2018-04-09T12:36:15.085Z,39.70
2018-04-09T12:38:43.312Z,40.90
2018-04-09T12:41:10.756Z,40.80
2018-04-09T12:43:38.215Z,42.20
2018-04-09T12:46:05.686Z,41.40
2018-04-09T12:48:33.139Z,41.90
2018-04-09T12:51:00.593Z,41.10
2018-04-09T12:53:28.048Z,39.70
2018-04-09T12:55:55.495Z,38.50
2018-04-09T12:58:22.960Z,38.00
2018-04-09T13:00:50.410Z,37.70
2018-04-09T13:03:17.897Z,37.00
2018-04-09T13:05:46.123Z,36.40
2018-04-09T13:08:13.582Z,36.30
2018-04-09T13:10:41.026Z,37.10
2018-04-09T13:13:08.616Z,37.10
2018-04-09T13:15:36.075Z,36.60
2018-04-09T13:18:03.515Z,36.50
2018-04-09T13:20:30.968Z,36.50
2018-04-09T13:22:58.411Z,36.10
2018-04-09T13:25:25.867Z,35.50
2018-04-09T13:27:54.102Z,35.30
2018-04-09T13:30:22.372Z,35.60
2018-04-09T13:32:49.832Z,35.60
2018-04-09T13:35:17.287Z,35.30
2018-04-09T13:37:44.739Z,35.00
2018-04-09T13:40:12.195Z,35.00
2018-04-09T13:42:39.635Z,35.40
2018-04-09T13:45:07.111Z,35.50
2018-04-09T13:47:34.556Z,35.30
2018-04-09T13:50:02.025Z,34.60
2018-04-09T13:52:29.482Z,34.00
2018-04-09T13:54:56.939Z,33.70
2018-04-09T13:57:24.398Z,33.40
2018-04-09T13:59:51.855Z,33.30
2018-04-09T14:02:19.307Z,33.90
2018-04-09T14:04:46.765Z,34.00
2018-04-09T14:07:14.206Z,34.20
2018-04-09T14:09:41.659Z,34.10
2018-04-09T14:12:09.132Z,33.90
2018-04-09T14:14:36.588Z,33.40
2018-04-09T14:17:04.079Z,32.90
2018-04-09T14:19:32.311Z,32.30
2018-04-09T14:21:59.764Z,32.30
2018-04-09T14:24:27.219Z,32.30
2018-04-09T14:26:54.679Z,32.30
2018-04-09T14:29:22.139Z,32.10
2018-04-09T14:31:49.595Z,32.00
2018-04-09T14:34:17.043Z,31.90
2018-04-09T14:36:44.487Z,31.90
2018-04-09T14:39:11.959Z,31.80
2018-04-09T14:41:39.404Z,32.00
2018-04-09T14:44:06.900Z,32.20
2018-04-09T14:46:34.339Z,32.50
2018-04-09T14:49:01.795Z,32.80
2018-04-09T14:51:29.239Z,33.00
2018-04-09T14:53:56.695Z,33.20
2018-04-09T14:56:24.151Z,33.30
2018-04-09T14:58:51.618Z,33.50
2018-04-09T15:01:19.127Z,33.70
2018-04-09T15:03:47.354Z,33.50
2018-04-09T15:06:14.811Z,33.50
2018-04-09T15:08:42.255Z,32.80
2018-04-09T15:11:09.740Z,32.50
2018-04-09T15:13:37.199Z,32.10
2018-04-09T15:16:04.667Z,32.00
2018-04-09T15:18:32.132Z,32.00
2018-04-09T15:20:59.589Z,31.90
2018-04-09T15:23:27.049Z,31.60
2018-04-09T15:25:54.535Z,31.30
2018-04-09T15:28:22.028Z,31.20
2018-04-09T15:30:49.471Z,31.10
2018-04-09T15:33:16.943Z,30.80
2018-04-09T15:35:44.393Z,30.70
2018-04-09T15:38:11.843Z,30.60
2018-04-09T15:40:39.311Z,30.50
2018-04-09T15:43:06.759Z,30.30
2018-04-09T15:45:34.227Z,30.10
2018-04-09T15:48:01.662Z,29.90
2018-04-09T15:50:29.133Z,29.90
2018-04-09T15:52:56.598Z,29.80
2018-04-09T15:55:24.047Z,29.70
2018-04-09T15:57:51.504Z,29.50
2018-04-09T16:00:18.987Z,29.30
2018-04-09T16:02:46.485Z,29.20
2018-04-09T16:05:14.013Z,29.00
2018-04-09T16:07:41.523Z,28.90
2018-04-09T16:10:09.022Z,28.80
2018-04-09T16:12:36.533Z,28.70
2018-04-09T16:15:04.044Z,28.70
2018-04-09T16:17:31.540Z,28.50
2018-04-09T16:19:58.999Z,28.50
2018-04-09T16:22:27.257Z,28.30
2018-04-09T16:27:28.491Z,28.30
2018-04-09T16:29:55.946Z,28.20
2018-04-09T16:32:23.398Z,28.20
2018-04-09T16:34:51.615Z,28.00
2018-04-09T16:37:19.079Z,28.00
2018-04-09T16:39:47.304Z,27.90
2018-04-09T16:42:14.826Z,27.90
2018-04-09T16:44:42.229Z,27.80
2018-04-09T16:47:09.685Z,27.80
2018-04-09T16:49:37.149Z,27.70
2018-04-09T16:52:04.598Z,27.60
2018-04-09T16:54:32.062Z,27.50
2018-04-09T16:56:59.519Z,27.50
2018-04-09T16:59:26.990Z,27.40
2018-04-09T17:01:54.436Z,27.40
2018-04-09T17:04:21.881Z,27.20
2018-04-09T17:06:49.331Z,27.20
2018-04-09T17:09:16.811Z,27.10
2018-04-09T17:11:44.256Z,27.10
2018-04-09T17:14:11.731Z,27.00
2018-04-09T17:16:39.183Z,26.90
2018-04-09T17:19:07.461Z,26.80
2018-04-09T17:21:34.927Z,26.70
2018-04-09T17:24:02.379Z,26.60
2018-04-09T17:26:29.887Z,26.60
2018-04-09T17:28:57.348Z,26.50
2018-04-09T17:31:24.797Z,26.40
2018-04-09T17:33:52.239Z,26.40
2018-04-09T17:36:20.491Z,26.30
2018-04-09T17:38:47.946Z,26.20
2018-04-09T17:41:15.401Z,26.20
2018-04-09T17:43:42.862Z,26.10
2018-04-09T17:46:10.324Z,26.10
2018-04-09T17:48:38.183Z,26.00
2018-04-09T17:51:05.651Z,26.00
2018-04-09T17:53:33.119Z,25.90
2018-04-09T17:56:00.615Z,25.80
2018-04-09T17:58:28.103Z,25.70
2018-04-09T18:00:55.543Z,25.70
2018-04-09T18:03:23.759Z,25.50
2018-04-09T18:05:51.983Z,25.50
2018-04-09T18:08:19.443Z,25.40
2018-04-09T18:10:46.899Z,25.40
2018-04-09T18:13:14.383Z,25.30
2018-04-09T18:15:41.892Z,25.20
2018-04-09T18:18:09.319Z,25.20
2018-04-09T18:20:36.775Z,25.10
2018-04-09T18:23:04.239Z,25.10
2018-04-09T18:25:31.695Z,25.00
2018-04-09T18:27:59.155Z,25.00
2018-04-09T18:30:26.614Z,24.90
2018-04-09T18:32:54.051Z,24.80
2018-04-09T18:35:21.519Z,24.70
2018-04-09T18:37:48.986Z,24.70
2018-04-09T18:40:17.238Z,24.60
2018-04-09T18:42:45.451Z,24.50
2018-04-09T18:45:13.675Z,24.50
2018-04-09T18:47:41.125Z,24.50
2018-04-09T18:50:08.575Z,24.50
2018-04-09T18:52:36.031Z,24.40
2018-04-09T18:55:03.497Z,24.40
2018-04-09T18:57:30.957Z,24.30
2018-04-09T18:59:58.411Z,24.30
2018-04-09T19:02:25.863Z,24.20
2018-04-09T19:04:53.359Z,24.20
2018-04-09T19:07:20.823Z,24.20
2018-04-09T19:09:48.278Z,24.10
2018-04-09T19:12:15.739Z,24.00
2018-04-09T19:14:43.344Z,24.00
2018-04-09T19:17:10.854Z,23.90
2018-04-09T19:19:38.391Z,23.90
2018-04-09T19:22:05.848Z,23.80
2018-04-09T19:24:33.320Z,23.80
2018-04-09T19:27:00.816Z,23.80
2018-04-09T19:29:29.063Z,23.70
2018-04-09T19:31:56.535Z,23.70
2018-04-09T19:34:23.995Z,23.60
2018-04-09T19:36:58.008Z,23.60
2018-04-09T19:39:31.173Z,23.60
2018-04-09T19:41:58.716Z,23.60
2018-04-09T19:44:26.933Z,23.50
2018-04-09T19:46:54.398Z,23.50
2018-04-09T19:49:22.688Z,23.40
2018-04-09T19:51:50.161Z,23.40
2018-04-09T19:54:17.640Z,23.40
2018-04-09T19:56:45.131Z,23.40
2018-04-09T19:59:12.600Z,23.40
2018-04-09T20:01:40.117Z,23.30
2018-04-09T20:04:07.572Z,23.30
2018-04-09T20:06:35.064Z,23.30
2018-04-09T20:09:03.324Z,23.30
2018-04-09T20:11:30.801Z,23.30
2018-04-09T20:13:58.270Z,23.20
2018-04-09T20:16:26.492Z,23.20
2018-04-09T20:18:53.988Z,23.20
2018-04-09T20:21:21.455Z,23.20
2018-04-09T20:23:49.686Z,23.20
2018-04-09T20:26:17.186Z,23.10
2018-04-09T20:28:44.648Z,23.10
2018-04-09T20:31:12.948Z,23.10
2018-04-09T20:33:42.614Z,23.00
2018-04-09T20:36:10.148Z,23.00
2018-04-09T20:38:39.245Z,22.90
2018-04-09T20:41:06.700Z,23.00
2018-04-09T20:43:34.175Z,23.00
2018-04-09T20:46:01.655Z,22.90
2018-04-09T20:48:29.151Z,22.90
2018-04-09T20:50:56.660Z,23.00
2018-04-09T20:53:24.176Z,22.90
2018-04-09T20:55:51.639Z,23.00
2018-04-09T20:58:19.135Z,23.00
2018-04-09T21:00:46.610Z,22.90
2018-04-09T21:03:14.158Z,22.90
2018-04-09T21:05:41.601Z,22.90
2018-04-09T21:08:11.620Z,22.80
2018-04-09T21:10:39.102Z,22.90
2018-04-09T21:13:07.366Z,22.80
2018-04-09T21:15:35.646Z,22.80
2018-04-09T21:18:03.998Z,22.70
2018-04-09T21:20:31.468Z,22.70
2018-04-09T21:22:58.969Z,22.70
2018-04-09T21:25:26.449Z,22.70
2018-04-09T21:27:53.953Z,22.80
2018-04-09T21:30:21.435Z,22.80
2018-04-09T21:32:49.679Z,22.80
2018-04-09T21:35:17.162Z,22.80
2018-04-09T21:37:44.668Z,22.70
2018-04-09T21:40:12.226Z,22.70
2018-04-09T21:42:39.699Z,22.60
2018-04-09T21:45:07.227Z,22.60
2018-04-09T21:47:34.757Z,22.60
2018-04-09T21:50:02.263Z,22.70
2018-04-09T21:52:29.780Z,22.70
2018-04-09T21:54:57.292Z,22.60
2018-04-09T21:57:24.820Z,22.60
2018-04-09T21:59:52.339Z,22.60
2018-04-09T22:02:19.814Z,22.50
2018-04-09T22:04:47.310Z,22.50
2018-04-09T22:07:14.788Z,22.50
2018-04-09T22:09:42.248Z,22.50
2018-04-09T22:12:09.720Z,22.50
2018-04-09T22:14:37.207Z,22.50
2018-04-09T22:17:04.781Z,22.40
2018-04-09T22:19:32.221Z,22.50
2018-04-09T22:22:00.478Z,22.50
2018-04-09T22:24:28.719Z,22.40
2018-04-09T22:26:56.193Z,22.40
2018-04-09T22:29:23.643Z,22.40
2018-04-09T22:31:51.092Z,22.40
2018-04-09T22:34:18.554Z,22.40
2018-04-09T22:36:46.012Z,22.40
2018-04-09T22:39:13.467Z,22.40
2018-04-09T22:41:41.692Z,22.30
2018-04-09T22:44:09.914Z,22.30
2018-04-09T22:46:37.378Z,22.30
2018-04-09T22:49:04.835Z,22.20
2018-04-09T22:51:32.291Z,22.20
2018-04-09T22:53:59.743Z,22.20
2018-04-09T22:56:27.198Z,22.10
2018-04-09T22:58:54.642Z,22.10
2018-04-09T23:01:22.107Z,22.10
2018-04-09T23:03:49.583Z,22.10
2018-04-09T23:06:17.041Z,22.10
2018-04-09T23:08:44.501Z,22.00
2018-04-09T23:11:11.955Z,22.10
2018-04-09T23:13:39.423Z,22.10
2018-04-09T23:16:06.879Z,22.10
2018-04-09T23:18:34.327Z,22.00
2018-04-09T23:21:01.781Z,22.00
2018-04-09T23:23:29.232Z,22.00
2018-04-09T23:25:56.679Z,22.00
2018-04-09T23:28:24.130Z,21.90
2018-04-09T23:30:51.610Z,21.90
2018-04-09T23:33:19.059Z,21.90
2018-04-09T23:35:46.519Z,22.00
2018-04-09T23:38:13.971Z,21.90
2018-04-09T23:40:41.415Z,21.90
2018-04-09T23:43:08.870Z,21.80
2018-04-09T23:45:36.350Z,21.80
2018-04-09T23:48:03.802Z,21.80
2018-04-09T23:50:32.020Z,21.80
2018-04-09T23:52:59.466Z,21.80
2018-04-09T23:55:26.914Z,21.80
2018-04-09T23:57:54.375Z,21.80
